createdAt,value
2023-02-19T00:03:22.753Z,100036.70
2023-02-19T00:08:26.238Z,100031.23
2023-02-19T00:13:30.261Z,100027.29
2023-02-19T00:18:34.022Z,100023.19
2023-02-19T00:23:37.846Z,100019.95
2023-02-19T00:28:41.321Z,100017.39
2023-02-19T00:33:45.419Z,100013.66
2023-02-19T00:38:49.588Z,100010.25
2023-02-19T00:43:54.905Z,100011.60
2023-02-19T00:48:59.037Z,100001.03
2023-02-19T00:54:02.835Z,99995.05
2023-02-19T00:59:06.286Z,99992.81
2023-02-19T01:04:09.887Z,99989.73
2023-02-19T01:09:13.344Z,99982.23
2023-02-19T01:14:17.962Z,99977.27
2023-02-19T01:19:21.495Z,99971.31
2023-02-19T01:24:24.990Z,99964.83
2023-02-19T01:29:28.551Z,99958.70
2023-02-19T01:34:33.593Z,99957.17
2023-02-19T01:39:37.256Z,99956.16
2023-02-19T01:45:19.100Z,99947.12
2023-02-19T01:50:23.726Z,99947.63
2023-02-19T01:55:27.205Z,99947.80
2023-02-19T02:00:31.910Z,99939.10
2023-02-19T02:05:49.522Z,99926.33
2023-02-19T02:10:54.846Z,99905.06
2023-02-19T02:16:10.229Z,99899.95
2023-02-19T02:21:36.063Z,99900.98
2023-02-19T02:26:50.967Z,99899.94
2023-02-19T02:31:58.708Z,99891.59
2023-02-19T02:37:04.312Z,99878.65
2023-02-19T02:42:26.505Z,99877.63
2023-02-19T02:47:41.405Z,99871.68
2023-02-19T02:53:06.808Z,99870.64
2023-02-19T02:58:12.353Z,99871.48
2023-02-19T03:03:20.086Z,99866.88
2023-02-19T03:08:27.891Z,99862.45
2023-02-19T03:13:56.659Z,99863.10
2023-02-19T03:19:21.658Z,99862.91
2023-02-19T03:24:50.370Z,99862.00
2023-02-19T03:29:57.406Z,99860.27
2023-02-19T03:35:06.080Z,99854.45
2023-02-19T03:40:11.153Z,99844.72
2023-02-19T03:45:35.980Z,99829.02
2023-02-19T03:50:46.736Z,99826.29
2023-02-19T03:55:59.473Z,99827.65
2023-02-19T04:01:09.417Z,99830.71
2023-02-19T04:06:20.661Z,99835.48
2023-02-19T04:11:27.083Z,99837.19
2023-02-19T04:16:39.324Z,99834.95
2023-02-19T04:21:44.809Z,99834.08
2023-02-19T04:26:51.686Z,99827.23
2023-02-19T04:31:55.339Z,99828.23
2023-02-19T04:36:58.814Z,99822.78
2023-02-19T04:42:02.203Z,99825.33
2023-02-19T04:47:05.744Z,99823.29
2023-02-19T04:52:09.238Z,99823.45
2023-02-19T04:57:12.703Z,99811.20
2023-02-19T05:02:16.222Z,99807.13
2023-02-19T05:07:19.935Z,99795.58
2023-02-19T05:12:23.425Z,99796.11
2023-02-19T05:17:26.977Z,99799.20
2023-02-19T05:22:30.555Z,99792.07
2023-02-19T05:27:34.029Z,99790.05
2023-02-19T05:32:37.823Z,99788.36
2023-02-19T05:37:41.249Z,99790.92
2023-02-19T05:42:44.678Z,99785.81
2023-02-19T05:47:48.162Z,99786.17
2023-02-19T05:52:51.858Z,99796.24
2023-02-19T05:57:55.353Z,99791.14
2023-02-19T06:02:59.389Z,99789.95
2023-02-19T06:08:02.996Z,99792.52
2023-02-19T06:13:06.801Z,99794.41
2023-02-19T06:18:10.205Z,99796.27
2023-02-19T06:23:13.815Z,99812.45
2023-02-19T06:28:17.361Z,99821.86
2023-02-19T06:33:20.919Z,99817.21
2023-02-19T06:38:24.707Z,99826.07
2023-02-19T06:43:28.683Z,99833.87
2023-02-19T06:48:32.940Z,99838.09
2023-02-19T06:53:36.545Z,99844.56
2023-02-19T06:58:39.918Z,99840.33
2023-02-19T07:03:43.610Z,99841.73
2023-02-19T07:08:47.275Z,99840.27
2023-02-19T07:13:55.568Z,99848.71
2023-02-19T07:19:00.088Z,99859.30
2023-02-19T07:24:04.221Z,99876.86
2023-02-19T07:29:09.561Z,99887.29
2023-02-19T07:34:13.251Z,99889.73
2023-02-19T07:39:16.794Z,99903.23
2023-02-19T07:44:20.212Z,99915.34
2023-02-19T07:49:23.870Z,99926.26
2023-02-19T07:54:27.568Z,99937.58
2023-02-19T07:59:31.101Z,99949.41
2023-02-19T08:04:35.487Z,99967.50
2023-02-19T08:09:39.189Z,99971.95
2023-02-19T08:14:42.754Z,99972.64
2023-02-19T08:19:46.244Z,99976.91
2023-02-19T08:24:49.665Z,99987.61
2023-02-19T08:29:53.126Z,99998.30
2023-02-19T08:34:56.537Z,100006.96
2023-02-19T08:39:59.917Z,100014.92
2023-02-19T08:45:03.953Z,100020.87
2023-02-19T08:50:09.269Z,100026.63
2023-02-19T08:55:12.676Z,100032.05
2023-02-19T09:00:17.378Z,100038.33
2023-02-19T09:05:21.858Z,100049.53
2023-02-19T09:10:25.221Z,100051.90
2023-02-19T09:15:29.376Z,100055.28
2023-02-19T09:20:32.815Z,100051.37
2023-02-19T09:25:36.704Z,100061.70
2023-02-19T09:30:40.252Z,100070.86
2023-02-19T09:35:48.929Z,100074.73
2023-02-19T09:41:00.336Z,100082.13
2023-02-19T09:46:24.568Z,100087.55
2023-02-19T09:51:31.492Z,100095.52
2023-02-19T09:56:42.277Z,100105.52
2023-02-19T10:01:57.417Z,100105.29
2023-02-19T10:07:03.862Z,100115.09
2023-02-19T10:12:16.433Z,100131.03
2023-02-19T10:17:26.033Z,100141.71
2023-02-19T10:22:33.206Z,100149.02
2023-02-19T10:27:41.341Z,100162.14
2023-02-19T10:33:02.148Z,100168.10
2023-02-19T10:38:08.481Z,100172.65
2023-02-19T10:43:30.847Z,100185.38
2023-02-19T10:48:38.560Z,100186.16
2023-02-19T10:53:58.047Z,100194.83
2023-02-19T10:59:27.096Z,100201.14
2023-02-19T11:04:37.579Z,100217.83
2023-02-19T11:09:53.503Z,100221.73
2023-02-19T11:15:22.468Z,100226.52
2023-02-19T11:20:31.550Z,100235.03
2023-02-19T11:25:38.324Z,100235.38
2023-02-19T11:30:49.861Z,100248.65
2023-02-19T11:36:19.109Z,100252.74
2023-02-19T11:41:42.807Z,100246.83
2023-02-19T11:46:57.742Z,100242.02
2023-02-19T11:52:16.968Z,100237.17
2023-02-19T11:57:43.917Z,100239.97
2023-02-19T12:03:10.160Z,100232.35
2023-02-19T12:08:43.025Z,100237.69
2023-02-19T12:14:40.283Z,100247.52
2023-02-19T12:19:57.581Z,100259.75
2023-02-19T12:25:26.191Z,100266.61
2023-02-19T12:31:07.744Z,100272.27
2023-02-19T12:36:25.329Z,100281.00
2023-02-19T12:41:44.684Z,100282.93
2023-02-19T12:46:54.677Z,100293.75
2023-02-19T12:52:05.611Z,100292.89
2023-02-19T12:57:23.114Z,100310.86
2023-02-19T13:02:40.863Z,100319.49
2023-02-19T13:07:54.014Z,100337.73
2023-02-19T13:13:05.979Z,100348.41
2023-02-19T13:18:14.366Z,100349.45
2023-02-19T13:23:46.190Z,100344.76
2023-02-19T13:29:09.179Z,100342.87
2023-02-19T13:34:35.834Z,100353.38
2023-02-19T13:39:49.468Z,100350.50
2023-02-19T13:45:03.488Z,100350.36
2023-02-19T13:50:26.923Z,100353.88
2023-02-19T13:55:55.071Z,100357.25
2023-02-19T14:01:05.150Z,100369.48
2023-02-19T14:06:15.108Z,100376.39
2023-02-19T14:11:38.354Z,100371.70
2023-02-19T14:17:00.644Z,100379.06
2023-02-19T14:22:48.299Z,100382.10
2023-02-19T14:27:54.965Z,100390.48
2023-02-19T14:33:15.563Z,100397.66
2023-02-19T14:38:24.808Z,100407.00
2023-02-19T14:43:31.974Z,100409.88
2023-02-19T14:48:42.137Z,100419.27
2023-02-19T14:53:51.349Z,100431.30
2023-02-19T14:59:23.391Z,100443.98
2023-02-19T15:04:35.563Z,100448.64
2023-02-19T15:09:48.563Z,100449.66
2023-02-19T15:14:59.492Z,100448.85
2023-02-19T15:20:11.165Z,100460.05
2023-02-19T15:25:19.864Z,100470.20
2023-02-19T15:30:28.817Z,100468.19
2023-02-19T15:35:33.721Z,100477.48
2023-02-19T15:40:37.644Z,100483.45
2023-02-19T15:45:46.217Z,100493.64
2023-02-19T15:50:54.744Z,100504.60
2023-02-19T15:56:04.831Z,100511.98
2023-02-19T16:01:17.125Z,100523.56
2023-02-19T16:06:21.958Z,100532.42
2023-02-19T16:11:34.730Z,100540.39
2023-02-19T16:16:41.869Z,100547.15
2023-02-19T16:21:45.861Z,100555.94
2023-02-19T16:26:49.823Z,100553.33
2023-02-19T16:31:57.875Z,100553.61
2023-02-19T16:37:19.506Z,100569.04
2023-02-19T16:42:23.429Z,100577.30
2023-02-19T16:47:40.849Z,100587.48
2023-02-19T16:53:00.142Z,100592.77
2023-02-19T16:58:04.078Z,100596.65
2023-02-19T17:03:14.126Z,100615.80
2023-02-19T17:08:38.945Z,100621.19
2023-02-19T17:13:48.612Z,100639.16
2023-02-19T17:18:54.760Z,100640.84
2023-02-19T17:23:58.818Z,100654.55
2023-02-19T17:29:05.124Z,100657.43
2023-02-19T17:34:17.351Z,100663.48
2023-02-19T17:39:31.286Z,100659.70
2023-02-19T17:44:40.892Z,100674.08
2023-02-19T17:49:47.891Z,100683.20
2023-02-19T17:55:01.799Z,100689.27
2023-02-19T18:00:26.622Z,100699.24
2023-02-19T18:05:34.977Z,100709.58
2023-02-19T18:10:39.635Z,100714.84
2023-02-19T18:15:45.506Z,100721.12
2023-02-19T18:20:52.735Z,100720.46
2023-02-19T18:26:02.438Z,100722.34
2023-02-19T18:31:07.668Z,100728.63
2023-02-19T18:36:13.627Z,100738.30
2023-02-19T18:41:22.170Z,100752.04
2023-02-19T18:46:32.250Z,100752.30
2023-02-19T18:51:42.907Z,100755.98
2023-02-19T18:56:53.861Z,100764.17
2023-02-19T19:02:02.335Z,100771.84
2023-02-19T19:07:14.094Z,100767.80
2023-02-19T19:12:23.161Z,100768.16
2023-02-19T19:17:38.021Z,100768.03
2023-02-19T19:22:46.027Z,100769.08
2023-02-19T19:27:57.302Z,100773.51
2023-02-19T19:33:03.208Z,100782.53
2023-02-19T19:38:16.938Z,100790.05
2023-02-19T19:43:23.964Z,100800.30
2023-02-19T19:48:30.361Z,100796.79
2023-02-19T19:53:35.804Z,100796.20
2023-02-19T19:58:45.360Z,100807.98
2023-02-19T20:03:53.103Z,100819.25
2023-02-19T20:09:03.246Z,100826.80
2023-02-19T20:14:13.762Z,100831.34
2023-02-19T20:19:30.010Z,100831.27
2023-02-19T20:24:36.571Z,100833.89
2023-02-19T20:29:53.114Z,100839.84
2023-02-19T20:35:04.295Z,100835.16
2023-02-19T20:40:13.880Z,100837.27
2023-02-19T20:45:21.664Z,100843.48
2023-02-19T20:50:31.850Z,100847.48
2023-02-19T20:55:39.220Z,100860.11
2023-02-19T21:00:50.422Z,100865.20
2023-02-19T21:05:54.834Z,100869.77
2023-02-19T21:11:04.861Z,100872.02
2023-02-19T21:16:11.717Z,100875.07
2023-02-19T21:21:24.748Z,100882.61
2023-02-19T21:26:35.415Z,100894.36
2023-02-19T21:31:41.803Z,100903.27
2023-02-19T21:36:55.363Z,100910.86
2023-02-19T21:42:09.678Z,100909.76
2023-02-19T21:47:15.745Z,100911.29
2023-02-19T21:52:26.469Z,100914.57
2023-02-19T21:57:31.522Z,100923.13
2023-02-19T22:02:35.833Z,100934.74
2023-02-19T22:07:39.850Z,100940.22
2023-02-19T22:12:45.125Z,100939.52
2023-02-19T22:17:52.264Z,100944.61
2023-02-19T22:23:06.580Z,100946.84
2023-02-19T22:28:18.252Z,100947.05
2023-02-19T22:33:24.934Z,100952.84
2023-02-19T22:38:40.226Z,100954.34
2023-02-19T22:43:44.512Z,100955.32
2023-02-19T22:48:51.984Z,100957.00
2023-02-19T22:54:01.240Z,100958.45
2023-02-19T22:59:07.936Z,100955.34
2023-02-19T23:04:15.880Z,100957.83
2023-02-19T23:09:36.151Z,100952.13
2023-02-19T23:14:43.272Z,100952.36
2023-02-19T23:19:59.249Z,100951.73
2023-02-19T23:25:03.016Z,100952.45
2023-02-19T23:30:08.573Z,100953.50
2023-02-19T23:35:12.204Z,100952.70
2023-02-19T23:40:15.537Z,100939.58
2023-02-19T23:45:19.386Z,100929.31
2023-02-19T23:50:23.531Z,100926.27
2023-02-19T23:55:27.865Z,100928.10
